Time;durP1;ratioP1;P1;durP2;ratioP2;P2;SDS_P1;SDS_P2;PMS_P1;PMS_P2;Temp;Humidity;BMP_temperature;BMP_pressure;BME280_temperature;BME280_humidity;BME280_pressure;Samples;Min_cycle;Max_cycle;Signal;HPM_P1;HPM_P2
2023/10/03 00:00:33;;;;;;;42.80;26.15;;;16.90;99.90;;;;;;5039636;28;20054;-89
2023/10/03 00:03:01;;;;;;;44.50;28.67;;;16.90;99.90;;;;;;5049855;28;20060;-89
2023/10/03 00:05:28;;;;;;;47.22;27.27;;;16.80;99.90;;;;;;5073825;28;20056;-89
2023/10/03 00:07:59;;;;;;;40.15;27.25;;;16.90;99.90;;;;;;5061875;28;20065;-89
2023/10/03 00:10:25;;;;;;;41.85;27.52;;;16.80;99.90;;;;;;5055226;28;20037;-89
2023/10/03 00:12:52;;;;;;;42.22;26.92;;;16.80;99.90;;;;;;5050419;28;20041;-88
2023/10/03 00:15:19;;;;;;;39.72;25.77;;;16.70;99.90;;;;;;5057716;28;20041;-89
2023/10/03 00:17:45;;;;;;;41.13;26.42;;;16.80;99.90;;;;;;5029098;28;20163;-89
2023/10/03 00:20:16;;;;;;;45.05;26.38;;;16.70;99.90;;;;;;5055967;28;20506;-89
2023/10/03 00:22:45;;;;;;;41.50;25.77;;;16.70;99.90;;;;;;5069156;28;20072;-89
2023/10/03 00:25:18;;;;;;;39.75;25.13;;;16.70;99.90;;;;;;5051111;28;20029;-89
2023/10/03 00:27:51;;;;;;;41.97;25.77;;;16.70;99.90;;;;;;5047795;28;20037;-89
2023/10/03 00:30:21;;;;;;;35.40;23.60;;;16.60;99.90;;;;;;5060082;28;20507;-89
2023/10/03 00:32:53;;;;;;;37.10;23.90;;;16.60;99.90;;;;;;5051075;28;20044;-89
2023/10/03 00:35:20;;;;;;;39.45;24.10;;;16.60;99.90;;;;;;5064034;28;20064;-90
2023/10/03 00:37:46;;;;;;;38.08;23.35;;;16.60;99.90;;;;;;5042543;28;20036;-89
2023/10/03 00:42:51;;;;;;;39.67;24.42;;;16.50;99.90;;;;;;5054209;28;20045;-89
2023/10/03 00:45:26;;;;;;;37.67;24.33;;;16.50;99.90;;;;;;5058847;28;20048;-89
2023/10/03 00:47:58;;;;;;;37.88;23.38;;;16.50;99.90;;;;;;5042261;28;20108;-89
2023/10/03 00:50:27;;;;;;;35.53;22.33;;;16.50;99.90;;;;;;5056614;28;20534;-89
2023/10/03 00:52:55;;;;;;;37.08;22.17;;;16.50;99.90;;;;;;5056107;28;20048;-88
2023/10/03 00:55:25;;;;;;;36.63;22.20;;;16.50;99.90;;;;;;5059046;28;20064;-88
2023/10/03 00:57:52;;;;;;;34.72;21.45;;;16.50;99.90;;;;;;5050803;28;20081;-88
2023/10/03 01:00:25;;;;;;;34.65;21.98;;;16.40;99.90;;;;;;5054912;28;20045;-89
2023/10/03 01:02:53;;;;;;;34.50;22.02;;;16.50;99.90;;;;;;5043849;28;20056;-88
2023/10/03 01:05:19;;;;;;;36.10;21.02;;;16.60;99.90;;;;;;5059607;28;20036;-90
2023/10/03 01:07:49;;;;;;;34.30;20.20;;;16.60;99.90;;;;;;5046956;28;20466;-89
2023/10/03 01:10:18;;;;;;;32.60;19.98;;;16.60;99.90;;;;;;5054994;28;20033;-88
2023/10/03 01:12:46;;;;;;;32.92;20.45;;;16.70;99.90;;;;;;5048411;28;20041;-88
2023/10/03 01:15:16;;;;;;;33.17;20.33;;;16.70;99.90;;;;;;5052078;28;20482;-88
2023/10/03 01:17:49;;;;;;;37.22;19.88;;;16.80;99.90;;;;;;5055815;28;20066;-87
2023/10/03 01:20:21;;;;;;;33.15;19.63;;;16.80;99.90;;;;;;5059204;28;20029;-89
2023/10/03 01:22:51;;;;;;;36.25;19.77;;;16.80;99.90;;;;;;5034268;28;20071;-89
2023/10/03 01:25:17;;;;;;;30.70;19.00;;;16.80;99.90;;;;;;5076722;28;20493;-88
2023/10/03 01:30:24;;;;;;;30.05;19.00;;;16.90;99.90;;;;;;3299632;26;20048;-90
2023/10/03 01:32:58;;;;;;;33.65;18.65;;;16.90;99.90;;;;;;5064712;28;20047;-90
2023/10/03 01:35:27;;;;;;;31.83;18.27;;;16.90;99.90;;;;;;5085360;28;20050;-89
2023/10/03 01:37:57;;;;;;;33.03;18.65;;;17.00;99.90;;;;;;5097488;28;20067;-88
2023/10/03 01:40:26;;;;;;;29.35;18.52;;;16.90;99.90;;;;;;5068940;28;20036;-89
2023/10/03 01:43:38;;;;;;;31.30;19.40;;;16.90;99.90;;;;;;5063962;28;20040;-89
2023/10/03 01:46:40;;;;;;;32.95;18.77;;;16.90;99.90;;;;;;5067216;28;20087;-89
2023/10/03 01:49:19;;;;;;;30.73;17.98;;;16.80;99.90;;;;;;5076085;28;20047;-89
2023/10/03 01:51:57;;;;;;;29.02;17.55;;;16.80;99.90;;;;;;5061061;28;20036;-89
2023/10/03 01:54:52;;;;;;;31.05;17.83;;;16.80;99.90;;;;;;5073785;28;20036;-90
2023/10/03 01:57:18;;;;;;;35.90;19.63;;;16.80;99.90;;;;;;5072871;28;20086;-89
2023/10/03 01:59:58;;;;;;;33.13;18.00;;;16.70;99.90;;;;;;5075601;28;20115;-90
2023/10/03 02:02:32;;;;;;;32.53;18.83;;;16.70;99.90;;;;;;5073621;28;20075;-89
2023/10/03 02:04:58;;;;;;;34.47;18.92;;;16.80;99.90;;;;;;5082348;28;20109;-89
2023/10/03 02:07:27;;;;;;;35.53;18.75;;;16.80;99.90;;;;;;5096118;28;20044;-88
2023/10/03 02:09:56;;;;;;;35.65;19.10;;;16.80;99.90;;;;;;5071534;28;20040;-89
2023/10/03 02:12:22;;;;;;;29.00;17.90;;;16.80;99.90;;;;;;5061951;28;20087;-89
2023/10/03 02:14:49;;;;;;;32.22;17.45;;;16.90;99.90;;;;;;5076269;28;20040;-87
2023/10/03 02:17:17;;;;;;;33.45;18.63;;;16.90;99.90;;;;;;5067980;28;20051;-88
2023/10/03 02:19:43;;;;;;;27.77;16.77;;;17.00;99.90;;;;;;5089763;28;20082;-88
2023/10/03 02:22:11;;;;;;;29.23;17.30;;;17.00;99.90;;;;;;5068450;28;20049;-88
2023/10/03 02:24:38;;;;;;;34.78;18.67;;;17.10;99.90;;;;;;5074023;28;20082;-88
2023/10/03 02:27:07;;;;;;;32.35;18.13;;;17.10;99.90;;;;;;5075371;28;20101;-87
2023/10/03 02:29:34;;;;;;;31.73;17.55;;;17.20;99.90;;;;;;5057924;28;20036;-88
2023/10/03 02:32:02;;;;;;;33.15;17.38;;;17.30;99.90;;;;;;5081362;28;20047;-88
2023/10/03 02:34:35;;;;;;;33.80;17.45;;;17.30;99.90;;;;;;5060772;28;20049;-89
2023/10/03 02:37:04;;;;;;;32.75;18.25;;;17.30;99.90;;;;;;5063298;28;20096;-89
2023/10/03 02:39:35;;;;;;;33.47;17.45;;;17.30;99.90;;;;;;5073518;28;20048;-89
2023/10/03 02:42:04;;;;;;;31.38;17.42;;;17.30;99.90;;;;;;5066871;28;20040;-89
2023/10/03 02:44:32;;;;;;;30.60;17.75;;;17.40;99.90;;;;;;5084877;28;20248;-88
2023/10/03 02:46:58;;;;;;;31.70;18.40;;;17.40;99.90;;;;;;5055150;28;20040;-88
2023/10/03 02:49:26;;;;;;;28.50;16.85;;;17.40;99.90;;;;;;5056091;28;20043;-89
2023/10/03 02:51:53;;;;;;;31.40;16.55;;;17.40;99.90;;;;;;5078985;28;20048;-89
2023/10/03 02:54:19;;;;;;;33.28;18.92;;;17.40;99.90;;;;;;5063925;28;20101;-88
2023/10/03 02:56:46;;;;;;;33.90;17.63;;;17.40;99.90;;;;;;5058233;28;20083;-89
2023/10/03 02:59:12;;;;;;;29.10;17.48;;;17.50;99.90;;;;;;5077583;28;20040;-88
2023/10/03 03:01:38;;;;;;;34.50;18.23;;;17.50;99.90;;;;;;5061460;28;20044;-89
2023/10/03 03:04:05;;;;;;;31.70;17.27;;;17.60;99.90;;;;;;5083460;28;20382;-88
2023/10/03 03:06:31;;;;;;;31.08;18.35;;;17.60;99.90;;;;;;5071575;28;20100;-89
2023/10/03 03:09:06;;;;;;;28.73;17.17;;;17.70;99.90;;;;;;5081243;28;20143;-89
2023/10/03 03:11:46;;;;;;;;;;;;;;;;;;;;;
2023/10/03 03:14:15;;;;;;;30.90;17.55;;;17.70;99.90;;;;;;5082800;28;20085;-89
2023/10/03 03:16:41;;;;;;;31.08;17.15;;;17.70;99.90;;;;;;5069945;28;20063;-89
2023/10/03 03:19:07;;;;;;;31.98;16.55;;;17.70;99.90;;;;;;5059000;28;20044;-89
2023/10/03 03:21:36;;;;;;;29.90;16.67;;;17.80;99.90;;;;;;5070615;28;20063;-89
2023/10/03 03:24:09;;;;;;;32.33;17.42;;;17.80;99.90;;;;;;5058371;28;20036;-89
2023/10/03 03:26:39;;;;;;;26.35;16.20;;;17.80;99.90;;;;;;5067340;28;20076;-89
2023/10/03 03:29:21;;;;;;;31.30;17.00;;;17.80;99.90;;;;;;5078327;28;20062;-89
2023/10/03 03:31:50;;;;;;;29.58;17.10;;;17.80;99.90;;;;;;5077481;28;20073;-89
2023/10/03 03:34:16;;;;;;;31.38;17.23;;;17.80;99.90;;;;;;5083596;28;20409;-89
2023/10/03 03:36:54;;;;;;;30.55;17.70;;;17.80;99.90;;;;;;5082667;28;20055;-89
2023/10/03 03:39:20;;;;;;;28.63;16.63;;;17.80;99.90;;;;;;5078985;28;20039;-88
2023/10/03 03:41:48;;;;;;;31.90;17.52;;;17.80;99.90;;;;;;5062119;28;20079;-89
2023/10/03 03:44:14;;;;;;;33.40;18.23;;;17.80;99.90;;;;;;5067814;28;20094;-88
2023/10/03 03:46:50;;;;;;;31.48;17.33;;;17.80;99.90;;;;;;5061223;28;20029;-89
2023/10/03 03:49:23;;;;;;;29.88;17.80;;;17.70;99.90;;;;;;5067450;28;20040;-88
2023/10/03 03:51:49;;;;;;;31.13;17.27;;;17.70;99.90;;;;;;5066302;28;20037;-89
2023/10/03 03:54:15;;;;;;;28.90;16.08;;;17.70;99.90;;;;;;5076695;28;20068;-88
2023/10/03 03:56:41;;;;;;;32.13;16.27;;;17.70;99.90;;;;;;5063043;28;20578;-89
2023/10/03 03:59:08;;;;;;;30.10;16.02;;;17.80;99.90;;;;;;5076723;28;20081;-88
2023/10/03 04:01:34;;;;;;;29.23;16.35;;;17.70;99.90;;;;;;5061343;28;20104;-89
2023/10/03 04:04:07;;;;;;;30.33;17.33;;;17.80;99.90;;;;;;5073509;28;20036;-89
2023/10/03 04:06:36;;;;;;;28.73;16.23;;;17.80;99.90;;;;;;5084476;28;20401;-89
2023/10/03 04:09:04;;;;;;;27.70;15.55;;;17.80;99.90;;;;;;5066179;28;20040;-89
2023/10/03 04:11:32;;;;;;;29.98;16.00;;;17.80;99.90;;;;;;5062198;28;20044;-89
2023/10/03 04:14:07;;;;;;;27.27;16.38;;;17.80;99.90;;;;;;5063685;28;20035;-88
2023/10/03 04:16:52;;;;;;;27.00;14.93;;;17.80;99.90;;;;;;5078972;28;20070;-88
2023/10/03 04:19:21;;;;;;;28.48;15.52;;;17.80;99.90;;;;;;5057254;28;20057;-88
2023/10/03 04:21:53;;;;;;;28.55;16.40;;;17.80;99.90;;;;;;5062269;28;20035;-89
2023/10/03 04:24:20;;;;;;;28.52;15.52;;;17.80;99.90;;;;;;5094979;28;20067;-88
2023/10/03 04:27:08;;;;;;;26.80;14.88;;;17.80;99.90;;;;;;5064052;28;20050;-89
2023/10/03 04:29:35;;;;;;;29.08;15.48;;;17.80;99.90;;;;;;5062610;28;20049;-88
2023/10/03 04:32:01;;;;;;;25.98;14.68;;;17.80;99.90;;;;;;5063681;28;20036;-88
2023/10/03 04:34:32;;;;;;;29.90;15.70;;;17.90;99.90;;;;;;5077939;28;20079;-88
2023/10/03 04:36:58;;;;;;;27.33;15.10;;;17.80;99.90;;;;;;5080485;28;20047;-88
2023/10/03 04:39:28;;;;;;;26.95;15.65;;;17.90;99.90;;;;;;5063254;28;20048;-88
2023/10/03 04:42:19;;;;;;;24.33;15.07;;;17.90;99.90;;;;;;5070759;28;20078;-89
2023/10/03 04:44:57;;;;;;;26.48;14.75;;;17.90;99.90;;;;;;5066689;28;20044;-89
2023/10/03 04:47:28;;;;;;;27.15;14.85;;;17.90;99.90;;;;;;5079138;28;20032;-89
2023/10/03 04:50:05;;;;;;;25.35;14.77;;;17.90;99.90;;;;;;5060100;28;20134;-89
2023/10/03 04:52:34;;;;;;;26.17;14.05;;;17.90;99.90;;;;;;5060522;28;20028;-89
2023/10/03 04:55:10;;;;;;;25.88;15.07;;;18.00;99.90;;;;;;5080483;28;20093;-89
2023/10/03 04:57:41;;;;;;;26.60;14.20;;;18.00;99.90;;;;;;5068506;28;20058;-89
2023/10/03 05:00:14;;;;;;;28.33;14.00;;;18.10;99.90;;;;;;5081212;28;20062;-88
2023/10/03 05:03:13;;;;;;;25.33;14.18;;;18.00;99.90;;;;;;5068076;28;20040;-89
2023/10/03 05:06:01;;;;;;;26.75;14.75;;;18.00;99.90;;;;;;5059710;28;20055;-88
2023/10/03 05:08:27;;;;;;;24.75;13.55;;;18.10;99.90;;;;;;5065237;28;20088;-89
2023/10/03 05:10:57;;;;;;;19.33;12.15;;;18.20;99.90;;;;;;5067169;28;20041;-89
2023/10/03 05:13:29;;;;;;;24.50;13.40;;;18.20;99.90;;;;;;5070807;28;20378;-89
2023/10/03 05:16:01;;;;;;;24.83;14.05;;;18.30;99.90;;;;;;5091540;28;20032;-90
2023/10/03 05:18:53;;;;;;;24.55;13.10;;;18.30;99.90;;;;;;5059425;28;20033;-89
2023/10/03 05:21:31;;;;;;;;;;;;;;;;;;;;;
2023/10/03 05:24:16;;;;;;;25.70;13.48;;;18.50;99.90;;;;;;5079808;28;20089;-88
2023/10/03 05:27:16;;;;;;;24.13;13.57;;;18.50;99.90;;;;;;5064238;28;20070;-89
2023/10/03 05:29:48;;;;;;;23.15;12.13;;;18.60;99.90;;;;;;5079438;28;20047;-89
2023/10/03 05:32:42;;;;;;;22.17;12.65;;;18.70;99.90;;;;;;5071798;28;20036;-90
2023/10/03 05:35:22;;;;;;;20.48;11.45;;;18.70;99.90;;;;;;5057431;28;20048;-89
2023/10/03 05:37:51;;;;;;;22.33;12.23;;;18.80;99.90;;;;;;5066606;28;20039;-89
2023/10/03 05:40:24;;;;;;;20.23;11.32;;;18.80;99.90;;;;;;5083591;28;20108;-88
2023/10/03 05:42:50;;;;;;;18.77;11.10;;;18.90;99.90;;;;;;5110140;28;20031;-90
2023/10/03 05:45:35;;;;;;;24.40;12.00;;;18.80;99.90;;;;;;5092446;28;20046;-90
2023/10/03 05:48:15;;;;;;;20.60;11.77;;;18.80;99.90;;;;;;5090857;28;20519;-86
2023/10/03 05:50:57;;;;;;;23.95;11.65;;;18.90;99.90;;;;;;5062356;28;20052;-91
2023/10/03 05:53:34;;;;;;;19.67;10.65;;;18.90;99.90;;;;;;5080558;28;20035;-89
2023/10/03 05:56:12;;;;;;;;;;;;;;;;;;;;;
2023/10/03 05:58:55;;;;;;;19.70;10.38;;;18.90;99.90;;;;;;5077819;28;20035;-89
2023/10/03 06:01:21;;;;;;;22.98;11.13;;;19.00;99.90;;;;;;5075250;28;20032;-90
2023/10/03 06:03:56;;;;;;;21.23;11.00;;;19.00;99.90;;;;;;5061811;28;20047;-90
2023/10/03 06:06:31;;;;;;;18.45;9.43;;;19.00;99.90;;;;;;5082524;28;20036;-91
2023/10/03 06:09:20;;;;;;;23.90;10.18;;;19.10;99.90;;;;;;5015843;28;20087;-90
2023/10/03 06:12:39;;;;;;;17.50;8.82;;;19.10;99.90;;;;;;4982132;28;20141;-91
2023/10/03 06:15:09;;;;;;;13.38;8.45;;;19.10;99.90;;;;;;4990219;28;20041;-91
2023/10/03 06:18:22;;;;;;;16.70;8.45;;;19.10;99.90;;;;;;5064784;28;20059;-89
2023/10/03 06:20:58;;;;;;;15.57;8.45;;;19.10;99.90;;;;;;4983183;28;20124;-90
2023/10/03 06:23:25;;;;;;;14.18;7.68;;;19.10;99.90;;;;;;5075187;28;20069;-89
2023/10/03 06:26:22;;;;;;;13.57;7.40;;;19.10;99.90;;;;;;5059396;28;20050;-90
2023/10/03 06:32:46;;;;;;;14.75;6.18;;;19.10;99.90;;;;;;5068368;28;20066;-89
2023/10/03 06:35:45;;;;;;;11.95;5.82;;;18.90;99.90;;;;;;5000054;28;20082;-89
2023/10/03 06:39:10;;;;;;;;;;;;;;;;;;;;;
2023/10/03 06:41:55;;;;;;;11.70;6.25;;;19.00;99.90;;;;;;5074616;28;20157;-89
2023/10/03 06:44:26;;;;;;;12.55;6.70;;;18.90;99.90;;;;;;5075758;28;20051;-89
2023/10/03 06:47:05;;;;;;;12.82;6.45;;;18.80;99.90;;;;;;5063474;28;20058;-89
2023/10/03 06:50:12;;;;;;;12.70;5.80;;;18.80;99.90;;;;;;5034987;28;20601;-88
2023/10/03 06:52:44;;;;;;;10.18;6.20;;;18.80;99.90;;;;;;5069225;28;20071;-90
2023/10/03 06:56:00;;;;;;;11.20;6.03;;;18.90;99.90;;;;;;5078995;28;20563;-90
2023/10/03 06:58:29;;;;;;;10.25;5.32;;;18.70;99.90;;;;;;5028995;28;20054;-89
2023/10/03 07:01:25;;;;;;;;;;;;;;;;;;;;;
2023/10/03 07:03:58;;;;;;;9.50;5.03;;;18.90;99.90;;;;;;5077724;28;20043;-91
2023/10/03 07:06:28;;;;;;;8.07;4.70;;;18.90;99.90;;;;;;5076706;28;20108;-89
2023/10/03 07:09:13;;;;;;;9.25;4.95;;;18.90;99.90;;;;;;5056309;28;20047;-88
2023/10/03 07:11:44;;;;;;;14.55;5.35;;;19.00;99.90;;;;;;5057255;28;20115;-90
2023/10/03 07:14:19;;;;;;;11.00;4.90;;;18.90;99.90;;;;;;5059179;28;20445;-89
2023/10/03 07:16:50;;;;;;;10.27;4.60;;;18.90;99.90;;;;;;5063960;28;20506;-89
2023/10/03 07:19:50;;;;;;;9.00;4.70;;;18.90;99.90;;;;;;5053065;28;20577;-88
2023/10/03 07:22:28;;;;;;;8.48;4.70;;;19.00;99.90;;;;;;5068960;28;20592;-87
2023/10/03 07:25:14;;;;;;;8.05;4.18;;;19.00;99.90;;;;;;5072819;28;20126;-88
2023/10/03 07:27:43;;;;;;;8.98;4.90;;;19.00;99.90;;;;;;5061620;28;20104;-87
2023/10/03 07:30:10;;;;;;;11.00;4.78;;;19.00;99.90;;;;;;5093919;22;20527;-86
2023/10/03 07:32:36;;;;;;;12.85;5.32;;;19.00;99.90;;;;;;5039294;28;20044;-86
2023/10/03 07:35:02;;;;;;;9.15;4.90;;;19.00;99.90;;;;;;5029284;28;20037;-87
2023/10/03 07:37:36;;;;;;;8.52;5.03;;;19.10;99.90;;;;;;5026874;28;20080;-87
2023/10/03 07:40:03;;;;;;;12.27;5.10;;;19.10;99.90;;;;;;5031642;28;20041;-87
2023/10/03 07:42:31;;;;;;;8.93;5.38;;;19.00;99.90;;;;;;5027510;28;20060;-89
2023/10/03 07:45:04;;;;;;;10.27;5.40;;;18.90;99.90;;;;;;5021370;28;20528;-86
2023/10/03 07:47:29;;;;;;;10.85;5.57;;;18.80;99.90;;;;;;5042853;28;20040;-87
2023/10/03 07:49:58;;;;;;;11.68;6.00;;;18.80;99.90;;;;;;5028299;28;20088;-87
2023/10/03 07:52:27;;;;;;;10.15;5.00;;;18.70;99.90;;;;;;5008647;28;20048;-87
2023/10/03 07:55:03;;;;;;;9.00;5.22;;;18.70;99.90;;;;;;5032874;28;20037;-86
2023/10/03 07:57:30;;;;;;;12.43;5.50;;;18.70;99.90;;;;;;5011552;28;20057;-85
2023/10/03 07:59:56;;;;;;;10.02;5.00;;;18.70;99.90;;;;;;5045354;28;20068;-86
2023/10/03 08:02:26;;;;;;;10.77;5.53;;;18.60;99.90;;;;;;5010375;28;20606;-87
2023/10/03 08:04:52;;;;;;;12.45;5.07;;;18.60;99.90;;;;;;5029458;28;20522;-87
2023/10/03 08:07:24;;;;;;;8.70;4.45;;;18.70;99.90;;;;;;5009863;28;20037;-86
2023/10/03 08:09:50;;;;;;;8.82;4.22;;;18.70;99.90;;;;;;5013037;28;20383;-87
2023/10/03 08:12:23;;;;;;;9.13;4.47;;;18.60;99.90;;;;;;5025350;28;20507;-87
2023/10/03 08:14:53;;;;;;;6.90;4.63;;;18.70;99.90;;;;;;4996492;28;20084;-87
2023/10/03 08:17:31;;;;;;;8.55;4.18;;;18.70;99.90;;;;;;5026286;28;20103;-87
2023/10/03 08:19:57;;;;;;;10.63;4.75;;;18.70;99.90;;;;;;5002949;28;20071;-86
2023/10/03 08:22:22;;;;;;;8.80;4.47;;;18.60;99.90;;;;;;5001590;28;20721;-85
2023/10/03 08:24:56;;;;;;;7.50;4.57;;;18.60;99.90;;;;;;5021367;28;20053;-85
2023/10/03 08:27:22;;;;;;;10.38;5.18;;;18.50;99.90;;;;;;5020199;28;20037;-86
2023/10/03 08:29:50;;;;;;;10.18;5.03;;;18.30;99.90;;;;;;5040798;28;20041;-87
2023/10/03 08:32:19;;;;;;;9.48;5.32;;;18.20;99.90;;;;;;5019484;28;20038;-88
2023/10/03 08:34:46;;;;;;;9.57;4.88;;;18.10;99.90;;;;;;5038587;28;20034;-87
2023/10/03 08:37:24;;;;;;;7.32;4.32;;;17.90;99.90;;;;;;4995885;28;20041;-87
2023/10/03 08:39:52;;;;;;;9.60;5.00;;;17.90;99.90;;;;;;5003644;28;20128;-88
2023/10/03 08:42:34;;;;;;;8.38;4.53;;;17.80;99.90;;;;;;5017357;28;20183;-88
2023/10/03 08:45:22;;;;;;;11.02;4.45;;;17.80;99.90;;;;;;5001890;28;20053;-87
2023/10/03 08:47:55;;;;;;;8.10;4.07;;;17.80;99.90;;;;;;5039356;28;20033;-87
2023/10/03 08:50:33;;;;;;;;;;;17.80;99.90;;;;;;5042058;28;20045;-88
2023/10/03 08:55:46;;;;;;;7.85;3.20;;;17.90;99.90;;;;;;5042188;28;20049;-86
2023/10/03 08:58:13;;;;;;;6.60;2.97;;;17.90;99.90;;;;;;5028187;28;20245;-87
2023/10/03 09:00:45;;;;;;;10.23;3.08;;;17.90;99.90;;;;;;5042840;28;20096;-88
2023/10/03 09:03:16;;;;;;;4.65;2.28;;;17.90;99.90;;;;;;5044522;28;20085;-87
2023/10/03 09:05:46;;;;;;;4.57;2.15;;;17.90;99.90;;;;;;5005561;28;20048;-86
2023/10/03 09:08:18;;;;;;;5.15;2.38;;;17.80;99.90;;;;;;5021527;28;20044;-86
2023/10/03 09:10:52;;;;;;;4.10;1.70;;;18.00;99.90;;;;;;5045745;28;20049;-87
2023/10/03 09:13:24;;;;;;;;;;;18.00;99.90;;;;;;5044700;28;20065;-86
2023/10/03 09:16:08;;;;;;;5.43;2.38;;;18.10;99.90;;;;;;5026676;28;19905;-87
2023/10/03 09:18:43;;;;;;;7.95;2.28;;;18.10;99.90;;;;;;5009017;28;20079;-87
2023/10/03 09:21:15;;;;;;;4.38;1.90;;;18.10;99.90;;;;;;5035640;28;20041;-87
2023/10/03 09:24:17;;;;;;;4.32;1.63;;;18.00;99.90;;;;;;5003801;28;20046;-86
2023/10/03 09:26:47;;;;;;;5.15;1.67;;;17.90;99.90;;;;;;4999471;28;20745;-87
2023/10/03 09:29:29;;;;;;;5.05;1.83;;;17.90;99.90;;;;;;5002581;28;20060;-86
2023/10/03 09:32:13;;;;;;;5.78;1.77;;;17.90;99.90;;;;;;5009523;28;20041;-87
2023/10/03 09:34:43;;;;;;;5.32;1.33;;;17.80;99.90;;;;;;5043623;28;20042;-87
2023/10/03 09:37:28;;;;;;;4.10;1.50;;;17.70;99.90;;;;;;5013389;28;20504;-87
2023/10/03 09:39:59;;;;;;;5.40;1.63;;;17.70;99.90;;;;;;5045307;28;20037;-86
2023/10/03 09:42:25;;;;;;;4.97;1.60;;;17.90;99.90;;;;;;5017088;28;20053;-86
2023/10/03 09:44:57;;;;;;;4.20;1.40;;;17.80;99.90;;;;;;5040780;28;20049;-87
2023/10/03 09:47:42;;;;;;;2.30;0.90;;;17.70;99.90;;;;;;5017747;28;20042;-87
2023/10/03 09:50:14;;;;;;;3.67;0.82;;;17.60;99.90;;;;;;5024832;28;20041;-88
2023/10/03 09:52:44;;;;;;;2.30;0.70;;;17.40;99.90;;;;;;5020430;28;20044;-87
2023/10/03 09:55:26;;;;;;;3.15;0.95;;;17.30;99.90;;;;;;5004618;28;20116;-87
2023/10/03 09:57:59;;;;;;;5.05;1.25;;;17.10;99.90;;;;;;5005236;28;20343;-87
2023/10/03 10:03:46;;;;;;;4.72;1.27;;;16.90;99.90;;;;;;5020150;28;20121;-87
2023/10/03 10:06:24;;;;;;;4.95;1.10;;;16.90;99.90;;;;;;5015052;28;20546;-87
2023/10/03 10:09:00;;;;;;;5.72;1.00;;;16.90;99.90;;;;;;5039660;28;20041;-87
2023/10/03 10:11:27;;;;;;;4.93;0.90;;;16.90;99.90;;;;;;5039511;28;20546;-87
2023/10/03 10:14:08;;;;;;;2.50;0.82;;;16.80;99.90;;;;;;5000258;28;20609;-86
2023/10/03 10:17:05;;;;;;;3.70;1.05;;;16.90;99.90;;;;;;5001893;28;20041;-88
2023/10/03 10:20:09;;;;;;;2.30;0.95;;;16.90;99.90;;;;;;5014834;28;20514;-86
2023/10/03 10:23:06;;;;;;;2.45;0.70;;;16.90;99.90;;;;;;5000204;28;20045;-87
2023/10/03 10:25:42;;;;;;;3.85;1.13;;;16.80;99.90;;;;;;5006230;28;20044;-86
2023/10/03 10:28:31;;;;;;;3.88;0.80;;;16.70;99.90;;;;;;5007242;28;20041;-86
2023/10/03 10:31:21;;;;;;;2.70;0.70;;;16.70;99.90;;;;;;5037300;28;20041;-86
2023/10/03 10:33:49;;;;;;;3.85;0.77;;;16.80;99.90;;;;;;5037319;28;20139;-86
2023/10/03 10:36:42;;;;;;;3.13;0.93;;;16.80;99.90;;;;;;5006058;28;20105;-86
2023/10/03 10:39:13;;;;;;;1.60;0.73;;;16.90;99.90;;;;;;5030727;28;20040;-87
2023/10/03 10:41:41;;;;;;;2.78;0.70;;;16.90;99.90;;;;;;5023534;28;20174;-86
2023/10/03 10:44:13;;;;;;;1.35;0.60;;;16.90;99.90;;;;;;5019807;28;20048;-86
2023/10/03 10:46:45;;;;;;;3.25;0.80;;;16.90;99.90;;;;;;5008400;28;20046;-86
2023/10/03 10:49:37;;;;;;;2.63;0.68;;;16.90;99.90;;;;;;5022713;28;20465;-86
2023/10/03 10:52:10;;;;;;;4.13;0.85;;;16.80;99.90;;;;;;5003618;28;20388;-87
2023/10/03 10:54:42;;;;;;;2.17;0.75;;;16.70;99.90;;;;;;5049499;28;20673;-86
2023/10/03 10:57:10;;;;;;;2.33;0.63;;;16.80;99.90;;;;;;5041583;28;20057;-86
2023/10/03 10:59:43;;;;;;;4.00;0.90;;;16.90;99.90;;;;;;5003287;28;20169;-87
2023/10/03 11:02:19;;;;;;;2.55;0.80;;;17.00;99.90;;;;;;5022928;28;20048;-86
2023/10/03 11:04:58;;;;;;;3.47;0.63;;;17.00;99.90;;;;;;5005711;28;20049;-86
2023/10/03 11:07:29;;;;;;;3.90;0.82;;;17.10;99.90;;;;;;5008068;28;20045;-88
2023/10/03 11:10:04;;;;;;;1.65;0.80;;;17.30;99.90;;;;;;5028056;28;20050;-86
2023/10/03 11:12:30;;;;;;;2.03;0.60;;;17.30;99.90;;;;;;4998537;28;20056;-87
2023/10/03 11:14:56;;;;;;;3.65;0.77;;;17.30;99.90;;;;;;5005835;28;21578;-87
2023/10/03 11:17:23;;;;;;;3.72;0.90;;;17.30;99.90;;;;;;5034705;28;20130;-87
2023/10/03 11:19:50;;;;;;;3.33;0.80;;;17.50;99.90;;;;;;5022941;28;20041;-86
2023/10/03 11:22:17;;;;;;;3.80;0.98;;;17.40;99.90;;;;;;5001967;28;20037;-86
2023/10/03 11:24:44;;;;;;;2.90;0.90;;;17.50;99.90;;;;;;5009932;28;20836;-85
2023/10/03 11:27:28;;;;;;;6.10;1.00;;;17.60;99.90;;;;;;5035631;28;20350;-86
2023/10/03 11:29:55;;;;;;;1.73;1.00;;;17.80;99.90;;;;;;5002410;28;20053;-85
2023/10/03 11:32:26;;;;;;;3.75;0.80;;;18.00;99.90;;;;;;5042890;28;20407;-87
2023/10/03 11:34:57;;;;;;;3.30;1.02;;;18.10;99.90;;;;;;5043334;28;20171;-87
2023/10/03 11:37:39;;;;;;;3.85;1.20;;;18.10;99.90;;;;;;5034499;28;20048;-87
2023/10/03 11:40:20;;;;;;;4.18;1.00;;;17.90;99.90;;;;;;5036976;28;20119;-86
2023/10/03 11:42:51;;;;;;;2.97;0.90;;;17.60;99.90;;;;;;5037357;28;20049;-86
2023/10/03 11:45:19;;;;;;;3.97;1.17;;;17.50;99.90;;;;;;5001978;28;20046;-85
2023/10/03 11:48:10;;;;;;;4.00;0.90;;;17.40;99.90;;;;;;5017750;28;20044;-86
2023/10/03 11:50:38;;;;;;;5.13;1.38;;;17.30;99.90;;;;;;5001439;28;20057;-86
2023/10/03 11:53:18;;;;;;;3.03;1.20;;;17.10;99.90;;;;;;5009094;28;20049;-86
2023/10/03 11:55:44;;;;;;;3.47;1.00;;;16.90;99.90;;;;;;5000953;28;20060;-87
2023/10/03 11:58:10;;;;;;;3.20;1.13;;;16.90;99.90;;;;;;5044101;28;20040;-87
2023/10/03 12:00:40;;;;;;;2.75;1.13;;;16.70;99.90;;;;;;5007864;28;20052;-85
2023/10/03 12:03:09;;;;;;;3.22;1.05;;;16.60;99.90;;;;;;5039831;28;20048;-86
2023/10/03 12:05:46;;;;;;;4.35;1.02;;;16.40;99.90;;;;;;5047795;28;20044;-88
2023/10/03 12:08:12;;;;;;;2.67;1.17;;;16.20;99.90;;;;;;5032455;28;20038;-87
2023/10/03 12:10:40;;;;;;;1.77;1.00;;;16.10;99.90;;;;;;5006386;28;20053;-87
2023/10/03 12:13:09;;;;;;;1.95;1.20;;;16.00;99.90;;;;;;5018288;28;20624;-88
2023/10/03 12:15:36;;;;;;;2.35;1.13;;;16.00;99.90;;;;;;5022011;28;20049;-89
2023/10/03 12:18:02;;;;;;;3.38;1.00;;;15.90;99.90;;;;;;5027524;28;20052;-88
2023/10/03 12:20:28;;;;;;;4.40;1.75;;;15.80;99.90;;;;;;5047179;28;20056;-89
2023/10/03 12:23:04;;;;;;;4.00;1.60;;;15.70;99.90;;;;;;5006019;28;20041;-88
2023/10/03 12:25:30;;;;;;;2.13;1.13;;;15.60;99.90;;;;;;5015471;28;20057;-88
2023/10/03 12:27:59;;;;;;;5.55;1.58;;;15.60;99.90;;;;;;4999700;28;20092;-91
2023/10/03 12:30:25;;;;;;;3.47;1.40;;;15.40;99.90;;;;;;5017399;28;20129;-88
2023/10/03 12:32:56;;;;;;;5.40;2.05;;;15.50;99.90;;;;;;5003696;28;20101;-88
2023/10/03 12:35:22;;;;;;;4.95;1.80;;;15.40;99.90;;;;;;5002053;28;20040;-88
2023/10/03 12:37:50;;;;;;;3.50;2.08;;;15.30;99.90;;;;;;5021609;28;20041;-88
2023/10/03 12:40:18;;;;;;;4.80;1.92;;;15.30;99.90;;;;;;5020540;28;20052;-88
2023/10/03 12:42:47;;;;;;;6.30;2.20;;;15.30;99.90;;;;;;4999248;28;20053;-88
2023/10/03 12:45:16;;;;;;;4.00;1.83;;;15.20;99.90;;;;;;5041279;28;20037;-89
2023/10/03 12:47:49;;;;;;;5.20;2.10;;;15.20;99.90;;;;;;5001983;28;20103;-90
2023/10/03 12:50:31;;;;;;;5.45;2.13;;;15.30;99.90;;;;;;5000414;28;20049;-88
2023/10/03 12:53:01;;;;;;;3.83;1.67;;;15.30;99.90;;;;;;5009443;28;20128;-89
2023/10/03 12:55:29;;;;;;;4.57;2.00;;;15.40;99.90;;;;;;5009948;28;20079;-89
2023/10/03 12:57:59;;;;;;;5.53;2.05;;;15.50;99.90;;;;;;5046064;28;20580;-88
2023/10/03 13:00:26;;;;;;;5.25;2.13;;;15.80;99.90;;;;;;5023215;28;20046;-87
2023/10/03 13:03:08;;;;;;;3.42;1.90;;;16.00;99.90;;;;;;5022059;28;20592;-89
2023/10/03 13:05:35;;;;;;;5.75;2.25;;;16.40;99.90;;;;;;5020309;28;20821;-88
2023/10/03 13:08:09;;;;;;;5.05;2.13;;;16.60;99.90;;;;;;5037637;28;20036;-87
2023/10/03 13:10:38;;;;;;;5.13;1.70;;;16.70;99.90;;;;;;4999551;28;20048;-87
2023/10/03 13:13:05;;;;;;;3.90;2.10;;;16.80;99.90;;;;;;5033156;28;20048;-88
2023/10/03 13:15:32;;;;;;;5.30;2.10;;;16.90;99.90;;;;;;5000684;28;20049;-87
2023/10/03 13:17:58;;;;;;;4.85;1.83;;;16.90;99.90;;;;;;5001600;28;20131;-88
2023/10/03 13:20:27;;;;;;;6.68;2.05;;;16.80;99.90;;;;;;5008485;28;20041;-87
2023/10/03 13:22:57;;;;;;;5.13;2.05;;;16.70;99.90;;;;;;5022497;28;20164;-87
2023/10/03 13:25:24;;;;;;;3.88;1.80;;;16.50;99.90;;;;;;5045882;28;20403;-87
2023/10/03 13:27:53;;;;;;;5.00;2.10;;;16.40;99.90;;;;;;5006207;28;20478;-88
2023/10/03 13:30:24;;;;;;;5.32;2.40;;;16.30;99.90;;;;;;5068183;22;20044;-26